createdAt,value
2023-02-12T00:01:28.728Z,3.10
2023-02-12T00:03:57.949Z,2.85
2023-02-12T00:06:26.880Z,2.65
2023-02-12T00:08:56.518Z,2.95
2023-02-12T00:11:28.372Z,2.85
2023-02-12T00:13:57.768Z,2.45
2023-02-12T00:16:29.046Z,3.80
2023-02-12T00:18:58.740Z,2.03
2023-02-12T00:21:29.349Z,1.98
2023-02-12T00:23:58.431Z,2.62
2023-02-12T00:26:27.589Z,2.33
2023-02-12T00:28:56.130Z,2.53
2023-02-12T00:31:28.153Z,2.53
2023-02-12T00:33:59.547Z,2.25
2023-02-12T00:36:30.373Z,2.70
2023-02-12T00:38:59.573Z,3.30
2023-02-12T00:41:28.026Z,3.00
2023-02-12T00:43:56.189Z,2.55
2023-02-12T00:46:24.740Z,2.80
2023-02-12T00:48:53.163Z,3.22
2023-02-12T00:51:21.588Z,2.58
2023-02-12T00:53:50.096Z,2.72
2023-02-12T00:56:18.754Z,2.53
2023-02-12T00:58:50.337Z,2.30
2023-02-12T01:01:19.094Z,2.95
2023-02-12T01:03:47.542Z,3.42
2023-02-12T01:06:15.695Z,2.65
2023-02-12T01:08:44.116Z,3.08
2023-02-12T01:11:13.819Z,3.10
2023-02-12T01:13:42.098Z,3.37
2023-02-12T01:16:24.298Z,3.85
2023-02-12T01:18:56.086Z,2.92
2023-02-12T01:21:27.571Z,3.25
2023-02-12T01:23:57.130Z,2.37
2023-02-12T01:26:27.163Z,2.35
2023-02-12T01:28:58.304Z,3.15
2023-02-12T01:31:31.087Z,2.45
2023-02-12T01:34:00.714Z,2.25
2023-02-12T01:36:30.321Z,3.12
2023-02-12T01:38:59.314Z,2.83
2023-02-12T01:41:31.104Z,3.10
2023-02-12T01:44:08.610Z,3.83
2023-02-12T01:46:36.823Z,2.87
2023-02-12T01:49:09.561Z,2.47
2023-02-12T01:51:38.111Z,3.70
2023-02-12T01:54:10.542Z,3.00
2023-02-12T01:56:39.752Z,2.30
2023-02-12T01:59:08.687Z,2.50
2023-02-12T02:01:37.331Z,3.00
2023-02-12T02:04:11.361Z,2.78
2023-02-12T02:06:48.809Z,2.55
2023-02-12T02:09:19.997Z,1.90
2023-02-12T02:12:06.682Z,2.90
2023-02-12T02:14:36.363Z,2.08
2023-02-12T02:17:04.719Z,1.77
2023-02-12T02:20:06.084Z,2.60
2023-02-12T02:23:01.714Z,2.72
2023-02-12T02:26:06.380Z,2.05
2023-02-12T02:28:40.588Z,2.70
2023-02-12T02:31:28.338Z,2.03
2023-02-12T02:34:08.697Z,2.80
2023-02-12T02:37:00.230Z,2.67
2023-02-12T02:39:57.928Z,1.60
2023-02-12T02:42:33.403Z,2.03
2023-02-12T02:45:25.077Z,2.03
2023-02-12T02:48:00.509Z,1.55
2023-02-12T02:50:31.561Z,2.00
2023-02-12T02:53:08.276Z,1.75
2023-02-12T02:55:43.127Z,2.17
2023-02-12T02:58:17.141Z,2.42
2023-02-12T03:01:07.135Z,1.30
2023-02-12T03:03:43.789Z,2.08
2023-02-12T03:06:30.678Z,2.95
2023-02-12T03:09:13.278Z,2.25
2023-02-12T03:11:43.153Z,2.00
2023-02-12T03:14:29.962Z,2.90
2023-02-12T03:17:13.207Z,2.55
2023-02-12T03:19:53.022Z,2.50
2023-02-12T03:22:26.391Z,1.65
2023-02-12T03:25:04.876Z,1.62
2023-02-12T03:27:38.951Z,2.47
2023-02-12T03:30:09.000Z,2.12
2023-02-12T03:33:08.938Z,2.25
2023-02-12T03:35:56.416Z,2.00
2023-02-12T03:38:38.093Z,2.47
2023-02-12T03:41:09.947Z,2.10
2023-02-12T03:43:55.339Z,2.10
2023-02-12T03:46:50.920Z,2.53
2023-02-12T03:49:43.448Z,2.17
2023-02-12T03:52:11.649Z,2.45
2023-02-12T03:54:40.344Z,1.70
2023-02-12T03:57:13.957Z,2.53
2023-02-12T03:59:44.055Z,2.17
2023-02-12T04:02:12.906Z,1.58
2023-02-12T04:04:41.644Z,1.37
2023-02-12T04:07:10.637Z,1.77
2023-02-12T04:09:39.119Z,1.62
2023-02-12T04:12:21.111Z,2.22
2023-02-12T04:15:14.787Z,2.28
2023-02-12T04:18:12.532Z,1.95
2023-02-12T04:20:54.784Z,2.45
2023-02-12T04:23:42.592Z,2.78
2023-02-12T04:26:19.617Z,2.00
2023-02-12T04:28:59.933Z,1.90
2023-02-12T04:31:54.581Z,2.00
2023-02-12T04:34:43.428Z,1.95
2023-02-12T04:38:08.732Z,1.62
2023-02-12T04:40:40.942Z,1.35
2023-02-12T04:43:09.401Z,1.33
2023-02-12T04:45:38.257Z,1.85
2023-02-12T04:48:06.898Z,2.20
2023-02-12T04:50:40.923Z,1.80
2023-02-12T04:53:11.015Z,1.93
2023-02-12T04:55:39.218Z,1.55
2023-02-12T04:58:10.614Z,1.50
2023-02-12T05:00:41.643Z,1.40
2023-02-12T05:03:12.977Z,3.30
2023-02-12T05:05:41.244Z,0.95
2023-02-12T05:08:09.354Z,2.20
2023-02-12T05:10:37.433Z,1.62
2023-02-12T05:13:05.894Z,1.77
2023-02-12T05:15:33.948Z,1.85
2023-02-12T05:18:02.031Z,1.58
2023-02-12T05:20:30.784Z,1.55
2023-02-12T05:22:59.097Z,2.05
2023-02-12T05:25:28.010Z,1.73
2023-02-12T05:27:57.184Z,2.17
2023-02-12T05:30:28.326Z,1.30
2023-02-12T05:32:56.734Z,1.65
2023-02-12T05:35:24.848Z,2.35
2023-02-12T05:37:55.939Z,1.55
2023-02-12T05:40:24.506Z,2.25
2023-02-12T05:42:52.630Z,1.73
2023-02-12T05:45:27.967Z,1.48
2023-02-12T05:47:56.977Z,1.50
2023-02-12T05:50:25.280Z,1.30
2023-02-12T05:53:01.213Z,1.35
2023-02-12T05:55:29.498Z,1.37
2023-02-12T05:57:57.551Z,1.80
2023-02-12T06:00:26.305Z,1.60
2023-02-12T06:02:57.047Z,1.65
2023-02-12T06:05:25.153Z,1.25
2023-02-12T06:07:53.615Z,1.90
2023-02-12T06:10:24.517Z,1.40
2023-02-12T06:12:56.141Z,1.37
2023-02-12T06:15:24.534Z,1.40
2023-02-12T06:17:52.658Z,1.85
2023-02-12T06:20:20.717Z,1.58
2023-02-12T06:22:49.035Z,1.75
2023-02-12T06:25:17.320Z,1.30
2023-02-12T06:27:45.370Z,1.95
2023-02-12T06:30:14.366Z,2.42
2023-02-12T06:32:42.624Z,2.67
2023-02-12T06:35:10.740Z,2.80
2023-02-12T06:37:39.195Z,3.90
2023-02-12T06:40:07.924Z,3.03
2023-02-12T06:42:36.325Z,3.17
2023-02-12T06:45:05.297Z,2.87
2023-02-12T06:47:33.440Z,1.95
2023-02-12T06:50:05.475Z,2.80
2023-02-12T06:52:34.077Z,2.67
2023-02-12T06:55:10.666Z,2.37
2023-02-12T06:57:39.384Z,2.37
2023-02-12T07:00:08.162Z,2.90
2023-02-12T07:02:38.938Z,2.40
2023-02-12T07:05:08.163Z,1.87
2023-02-12T07:07:36.445Z,2.30
2023-02-12T07:10:04.645Z,3.20
2023-02-12T07:12:33.882Z,3.12
2023-02-12T07:15:02.081Z,2.42
2023-02-12T07:17:31.218Z,2.67
2023-02-12T07:19:59.618Z,2.60
2023-02-12T07:22:27.688Z,1.95
2023-02-12T07:24:55.832Z,2.55
2023-02-12T07:27:24.314Z,2.70
2023-02-12T07:29:52.577Z,1.80
2023-02-12T07:32:20.759Z,1.77
2023-02-12T07:34:49.144Z,2.03
2023-02-12T07:37:22.741Z,1.92
2023-02-12T07:39:51.463Z,1.65
2023-02-12T07:42:19.791Z,2.05
2023-02-12T07:44:48.793Z,2.12
2023-02-12T07:47:17.388Z,1.58
2023-02-12T07:49:45.786Z,1.73
2023-02-12T07:52:14.460Z,2.15
2023-02-12T07:54:42.881Z,1.50
2023-02-12T07:57:11.475Z,1.40
2023-02-12T07:59:39.553Z,1.60
2023-02-12T08:02:09.905Z,2.10
2023-02-12T08:04:38.425Z,1.87
2023-02-12T08:07:06.733Z,1.75
2023-02-12T08:09:34.932Z,1.40
2023-02-12T08:12:03.423Z,1.17
2023-02-12T08:14:32.046Z,1.40
2023-02-12T08:17:00.194Z,1.15
2023-02-12T08:19:28.894Z,1.92
2023-02-12T08:21:57.101Z,1.67
2023-02-12T08:24:25.923Z,1.00
2023-02-12T08:26:55.694Z,0.90
2023-02-12T08:29:27.538Z,1.35
2023-02-12T08:31:58.627Z,1.05
2023-02-12T08:34:30.041Z,1.70
2023-02-12T08:36:58.961Z,1.65
2023-02-12T08:39:29.533Z,1.10
2023-02-12T08:41:59.972Z,1.23
2023-02-12T08:44:29.264Z,1.12
2023-02-12T08:46:57.480Z,0.85
2023-02-12T08:49:29.484Z,1.37
2023-02-12T08:51:59.861Z,1.92
2023-02-12T08:54:29.599Z,1.27
2023-02-12T08:57:00.633Z,1.33
2023-02-12T08:59:29.080Z,1.00
2023-02-12T09:01:57.713Z,0.85
2023-02-12T09:04:28.187Z,1.00
2023-02-12T09:06:56.632Z,1.60
2023-02-12T09:09:25.142Z,1.52
2023-02-12T09:11:53.698Z,1.30
2023-02-12T09:14:25.273Z,1.37
2023-02-12T09:16:54.525Z,1.67
2023-02-12T09:19:23.422Z,1.58
2023-02-12T09:21:56.960Z,1.55
2023-02-12T09:24:27.655Z,1.40
2023-02-12T09:26:56.622Z,1.02
2023-02-12T09:29:25.029Z,1.30
2023-02-12T09:31:54.045Z,1.60
2023-02-12T09:34:22.219Z,1.20
2023-02-12T09:36:50.282Z,1.35
2023-02-12T09:39:19.126Z,0.95
2023-02-12T09:41:53.033Z,1.30
2023-02-12T09:44:36.169Z,0.95
2023-02-12T09:47:19.197Z,1.52
2023-02-12T09:50:22.735Z,1.50
2023-02-12T09:52:52.439Z,1.40
2023-02-12T09:55:26.323Z,1.35
2023-02-12T09:57:55.075Z,2.03
2023-02-12T10:00:23.854Z,1.75
2023-02-12T10:02:53.958Z,1.98
2023-02-12T10:05:29.218Z,1.90
2023-02-12T10:08:22.158Z,1.70
2023-02-12T10:10:54.403Z,1.70
2023-02-12T10:13:40.942Z,1.35
2023-02-12T10:16:24.781Z,1.52
2023-02-12T10:19:13.347Z,1.58
2023-02-12T10:21:57.629Z,1.65
2023-02-12T10:25:10.501Z,2.05
2023-02-12T10:27:43.590Z,1.70
2023-02-12T10:30:31.330Z,1.50
2023-02-12T10:33:06.745Z,1.20
2023-02-12T10:35:35.867Z,1.92
2023-02-12T10:38:22.618Z,1.17
2023-02-12T10:40:52.042Z,1.05
2023-02-12T10:43:20.155Z,1.00
2023-02-12T10:45:49.202Z,1.45
2023-02-12T10:48:22.236Z,1.67
2023-02-12T10:51:08.960Z,2.15
2023-02-12T10:53:40.655Z,1.77
2023-02-12T10:56:17.566Z,2.40
2023-02-12T10:59:00.411Z,1.70
2023-02-12T11:01:31.045Z,1.73
2023-02-12T11:04:18.909Z,2.87
2023-02-12T11:07:07.411Z,1.90
2023-02-12T11:09:45.646Z,1.92
2023-02-12T11:12:49.437Z,1.87
2023-02-12T11:15:22.107Z,1.73
2023-02-12T11:17:58.910Z,2.33
2023-02-12T11:20:57.922Z,1.00
2023-02-12T11:23:32.095Z,2.30
2023-02-12T11:26:18.848Z,1.75
2023-02-12T11:29:00.520Z,1.45
2023-02-12T11:31:35.311Z,1.50
2023-02-12T11:34:13.026Z,0.60
2023-02-12T11:36:44.758Z,0.43
2023-02-12T11:39:21.880Z,0.98
2023-02-12T11:42:15.360Z,0.73
2023-02-12T11:44:51.229Z,0.90
2023-02-12T11:47:31.770Z,0.80
2023-02-12T11:50:04.156Z,0.57
2023-02-12T11:52:38.471Z,0.90
2023-02-12T11:55:29.693Z,0.93
2023-02-12T11:58:13.871Z,0.82
2023-02-12T12:00:47.208Z,1.02
2023-02-12T12:03:24.322Z,0.98
2023-02-12T12:05:57.651Z,0.70
2023-02-12T12:08:34.162Z,0.80
2023-02-12T12:11:11.626Z,0.82
2023-02-12T12:14:13.655Z,1.05
2023-02-12T12:17:13.010Z,0.60
2023-02-12T12:20:02.536Z,0.77
2023-02-12T12:22:40.010Z,0.70
2023-02-12T12:25:25.207Z,0.77
2023-02-12T12:28:08.543Z,0.90
2023-02-12T12:30:39.623Z,0.70
2023-02-12T12:33:17.961Z,0.73
2023-02-12T12:36:04.987Z,0.43
2023-02-12T12:38:44.749Z,1.08
2023-02-12T12:41:51.087Z,1.20
2023-02-12T12:44:32.408Z,0.70
2023-02-12T12:47:03.789Z,0.93
2023-02-12T12:49:37.915Z,1.12
2023-02-12T12:52:43.662Z,1.10
2023-02-12T12:55:24.259Z,0.82
2023-02-12T12:58:19.388Z,1.52
2023-02-12T13:01:10.416Z,0.93
2023-02-12T13:04:16.685Z,1.12
2023-02-12T13:07:09.761Z,0.90
2023-02-12T13:10:08.811Z,1.10
2023-02-12T13:12:54.282Z,1.08
2023-02-12T13:15:39.199Z,0.80
2023-02-12T13:18:26.615Z,1.20
2023-02-12T13:21:14.063Z,1.27
2023-02-12T13:23:52.317Z,0.85
2023-02-12T13:26:30.510Z,0.57
2023-02-12T13:29:12.273Z,0.80
2023-02-12T13:31:51.242Z,1.37
2023-02-12T13:34:22.974Z,3.28
2023-02-12T13:36:51.484Z,2.80
2023-02-12T13:39:35.493Z,3.12
2023-02-12T13:42:18.342Z,6.07
2023-02-12T13:44:51.341Z,5.45
2023-02-12T13:47:48.207Z,5.53
2023-02-12T13:50:38.792Z,5.85
2023-02-12T13:53:29.278Z,6.82
2023-02-12T13:56:27.610Z,6.00
2023-02-12T13:59:00.268Z,6.85
2023-02-12T14:01:38.559Z,5.82
2023-02-12T14:04:34.224Z,5.78
2023-02-12T14:07:08.061Z,5.97
2023-02-12T14:10:06.808Z,7.80
2023-02-12T14:12:41.407Z,8.70
2023-02-12T14:15:31.174Z,7.53
2023-02-12T14:18:02.677Z,7.30
2023-02-12T14:20:34.020Z,7.07
2023-02-12T14:23:28.507Z,7.95
2023-02-12T14:26:10.009Z,6.95
2023-02-12T14:28:56.397Z,5.47
2023-02-12T14:31:28.118Z,6.87
2023-02-12T14:34:05.313Z,7.65
2023-02-12T14:36:38.872Z,7.30
2023-02-12T14:39:19.556Z,8.85
2023-02-12T14:41:57.371Z,7.90
2023-02-12T14:44:29.539Z,6.25
2023-02-12T14:47:02.688Z,6.57
2023-02-12T14:49:37.081Z,8.48
2023-02-12T14:52:17.762Z,8.13
2023-02-12T14:54:51.076Z,7.55
2023-02-12T14:57:39.770Z,7.12
2023-02-12T15:00:17.505Z,8.38
2023-02-12T15:02:53.861Z,8.45
2023-02-12T15:05:26.296Z,7.45
2023-02-12T15:08:14.001Z,7.07
2023-02-12T15:10:52.827Z,5.22
2023-02-12T15:13:24.304Z,5.93
2023-02-12T15:16:02.594Z,6.57
2023-02-12T15:18:40.950Z,8.05
2023-02-12T15:21:31.767Z,9.55
2023-02-12T15:24:09.325Z,10.30
2023-02-12T15:26:42.722Z,10.40
2023-02-12T15:29:37.442Z,10.63
2023-02-12T15:32:08.327Z,9.63
2023-02-12T15:34:40.134Z,7.57
2023-02-12T15:37:10.036Z,10.77
2023-02-12T15:39:44.665Z,9.55
2023-02-12T15:42:33.803Z,7.78
2023-02-12T15:45:14.253Z,8.02
2023-02-12T15:47:45.888Z,12.85
2023-02-12T15:50:18.327Z,10.20
2023-02-12T15:52:49.936Z,6.90
2023-02-12T15:55:25.795Z,9.60
2023-02-12T15:58:00.210Z,10.10
2023-02-12T16:00:29.113Z,13.30
2023-02-12T16:02:57.769Z,11.18
2023-02-12T16:05:27.502Z,7.53
2023-02-12T16:07:56.331Z,8.20
2023-02-12T16:10:27.203Z,6.43
2023-02-12T16:12:55.919Z,7.15
2023-02-12T16:15:28.700Z,6.18
2023-02-12T16:17:59.992Z,6.28
2023-02-12T16:20:30.713Z,5.12
2023-02-12T16:22:59.869Z,5.68
2023-02-12T16:25:31.891Z,6.57
2023-02-12T16:28:06.481Z,6.47
2023-02-12T16:30:39.050Z,9.35
2023-02-12T16:33:34.222Z,8.98
2023-02-12T16:36:06.322Z,10.90
2023-02-12T16:38:39.542Z,11.93
2023-02-12T16:41:19.801Z,12.07
2023-02-12T16:44:12.325Z,13.95
2023-02-12T16:46:50.609Z,13.98
2023-02-12T16:49:21.922Z,10.98
2023-02-12T16:51:52.592Z,9.35
2023-02-12T16:54:26.835Z,9.18
2023-02-12T16:56:56.056Z,8.40
2023-02-12T16:59:24.736Z,9.07
2023-02-12T17:02:04.138Z,9.38
2023-02-12T17:04:32.790Z,10.25
2023-02-12T17:07:01.198Z,9.15
2023-02-12T17:09:33.300Z,9.98
2023-02-12T17:12:02.671Z,9.80
2023-02-12T17:14:31.195Z,7.95
2023-02-12T17:16:59.817Z,9.90
2023-02-12T17:19:28.828Z,11.43
2023-02-12T17:21:57.756Z,10.70
2023-02-12T17:24:29.239Z,8.10
2023-02-12T17:26:58.043Z,6.53
2023-02-12T17:29:27.286Z,8.65
2023-02-12T17:31:58.841Z,8.45
2023-02-12T17:34:28.784Z,10.50
2023-02-12T17:36:59.951Z,8.75
2023-02-12T17:39:29.983Z,4.87
2023-02-12T17:42:00.405Z,7.07
2023-02-12T17:44:28.922Z,9.27
2023-02-12T17:46:59.050Z,10.07
2023-02-12T17:49:27.636Z,11.18
2023-02-12T17:51:56.647Z,10.77
2023-02-12T17:54:25.069Z,8.90
2023-02-12T17:56:53.438Z,8.77
2023-02-12T17:59:22.231Z,8.82
2023-02-12T18:01:50.674Z,7.53
2023-02-12T18:04:19.615Z,9.30
2023-02-12T18:06:47.903Z,7.60
2023-02-12T18:09:16.375Z,6.60
2023-02-12T18:11:45.836Z,4.82
2023-02-12T18:14:14.216Z,3.92
2023-02-12T18:16:42.751Z,4.20
2023-02-12T18:19:12.160Z,5.53
2023-02-12T18:21:41.051Z,4.55
2023-02-12T18:24:09.346Z,4.20
2023-02-12T18:26:38.371Z,3.95
2023-02-12T18:29:06.474Z,3.60
2023-02-12T18:31:35.289Z,3.53
2023-02-12T18:34:05.958Z,3.95
2023-02-12T18:36:34.847Z,5.05
2023-02-12T18:39:04.169Z,5.30
2023-02-12T18:41:33.484Z,6.53
2023-02-12T18:44:01.898Z,5.43
2023-02-12T18:46:31.763Z,5.62
2023-02-12T18:49:01.152Z,4.45
2023-02-12T18:51:31.828Z,3.17
2023-02-12T18:54:04.853Z,2.67
2023-02-12T18:56:40.883Z,1.12
2023-02-12T18:59:13.931Z,1.65
2023-02-12T19:01:43.173Z,5.22
2023-02-12T19:04:13.528Z,5.97
2023-02-12T19:06:46.657Z,4.45
2023-02-12T19:09:17.323Z,6.68
2023-02-12T19:11:47.466Z,6.32
2023-02-12T19:14:18.476Z,7.18
2023-02-12T19:16:47.895Z,9.38
2023-02-12T19:19:17.679Z,8.73
2023-02-12T19:21:46.798Z,8.70
2023-02-12T19:24:16.483Z,8.98
2023-02-12T19:26:45.540Z,11.60
2023-02-12T19:29:14.263Z,8.05
2023-02-12T19:31:45.689Z,6.12
2023-02-12T19:34:19.697Z,5.80
2023-02-12T19:36:49.850Z,6.70
2023-02-12T19:39:22.222Z,5.35
2023-02-12T19:41:51.891Z,6.30
2023-02-12T19:44:23.594Z,7.55
2023-02-12T19:46:53.052Z,6.32
2023-02-12T19:49:23.575Z,6.62
2023-02-12T19:51:53.043Z,5.03
2023-02-12T19:54:23.424Z,5.07
2023-02-12T19:56:53.376Z,5.32
2023-02-12T19:59:24.464Z,6.05
2023-02-12T20:01:53.342Z,4.30
2023-02-12T20:04:25.461Z,5.28
2023-02-12T20:06:54.080Z,5.57
2023-02-12T20:09:23.371Z,5.45
2023-02-12T20:11:53.867Z,5.22
2023-02-12T20:14:22.814Z,7.82
2023-02-12T20:16:56.196Z,7.78
2023-02-12T20:19:30.102Z,5.30
2023-02-12T20:24:32.224Z,5.28
2023-02-12T20:27:02.298Z,4.32
2023-02-12T20:29:31.048Z,4.03
2023-02-12T20:31:59.731Z,7.40
2023-02-12T20:34:28.994Z,6.47
2023-02-12T20:36:58.409Z,6.72
2023-02-12T20:39:27.054Z,8.48
2023-02-12T20:41:55.742Z,9.23
2023-02-12T20:44:24.365Z,7.37
2023-02-12T20:46:56.500Z,7.87
2023-02-12T20:49:26.699Z,6.95
2023-02-12T20:51:55.402Z,6.93
2023-02-12T20:54:23.915Z,7.78
2023-02-12T20:56:53.918Z,6.95
2023-02-12T20:59:22.103Z,5.60
2023-02-12T21:01:51.013Z,6.43
2023-02-12T21:04:20.310Z,6.55
2023-02-12T21:06:48.890Z,6.43
2023-02-12T21:09:18.813Z,5.97
2023-02-12T21:11:48.679Z,5.50
2023-02-12T21:14:22.494Z,7.22
2023-02-12T21:16:54.321Z,8.48
2023-02-12T21:19:23.931Z,6.75
2023-02-12T21:21:53.198Z,7.47
2023-02-12T21:24:24.178Z,6.87
2023-02-12T21:26:54.016Z,6.75
2023-02-12T21:29:23.485Z,6.90
2023-02-12T21:31:52.728Z,7.07
2023-02-12T21:34:23.258Z,8.32
2023-02-12T21:36:54.919Z,6.75
2023-02-12T21:39:27.523Z,7.55
2023-02-12T21:42:00.269Z,8.85
2023-02-12T21:44:31.454Z,5.90
2023-02-12T21:46:59.819Z,8.52
2023-02-12T21:49:28.707Z,7.25
2023-02-12T21:52:02.032Z,6.50
2023-02-12T21:54:31.701Z,6.60
2023-02-12T21:57:00.519Z,5.45
2023-02-12T21:59:31.910Z,5.80
2023-02-12T22:02:01.988Z,5.87
2023-02-12T22:04:30.430Z,5.32
2023-02-12T22:07:02.981Z,5.32
2023-02-12T22:09:32.044Z,5.40
2023-02-12T22:12:00.443Z,5.72
2023-02-12T22:14:28.670Z,4.93
2023-02-12T22:16:57.389Z,4.35
2023-02-12T22:19:25.742Z,4.60
2023-02-12T22:21:53.938Z,5.60
2023-02-12T22:24:22.456Z,4.78
2023-02-12T22:26:54.014Z,3.53
2023-02-12T22:29:23.657Z,3.92
2023-02-12T22:31:52.399Z,4.03
2023-02-12T22:34:20.596Z,5.03
2023-02-12T22:36:49.055Z,5.47
2023-02-12T22:39:17.862Z,5.75
2023-02-12T22:41:46.362Z,4.68
2023-02-12T22:44:16.643Z,3.97
2023-02-12T22:46:48.715Z,3.72
2023-02-12T22:49:17.962Z,4.75
2023-02-12T22:51:46.760Z,4.75
2023-02-12T22:54:17.179Z,3.62
2023-02-12T22:56:49.297Z,4.57
2023-02-12T22:59:17.757Z,4.07
2023-02-12T23:01:46.250Z,4.47
2023-02-12T23:04:16.949Z,3.62
2023-02-12T23:06:46.991Z,4.70
2023-02-12T23:09:19.317Z,3.65
2023-02-12T23:11:48.366Z,3.08
2023-02-12T23:14:17.325Z,4.20
2023-02-12T23:16:45.996Z,3.70
2023-02-12T23:19:14.951Z,2.25
2023-02-12T23:21:43.500Z,3.62
2023-02-12T23:24:15.131Z,4.28
2023-02-12T23:26:43.968Z,3.33
2023-02-12T23:29:12.387Z,2.55
2023-02-12T23:31:41.187Z,3.17
2023-02-12T23:34:09.874Z,2.92
2023-02-12T23:36:37.993Z,3.30
2023-02-12T23:39:06.467Z,2.35
2023-02-12T23:41:35.014Z,3.28
2023-02-12T23:44:03.888Z,2.33
2023-02-12T23:46:32.323Z,3.15
2023-02-12T23:49:00.900Z,2.70
2023-02-12T23:51:29.136Z,1.92
2023-02-12T23:53:57.994Z,2.58
2023-02-12T23:56:26.841Z,3.58
2023-02-12T23:58:57.359Z,3.65
